Station Historical Data
Daily Summary for April 28, 2017 Units:  English    Metric   Both
« Previous Day
Next Day »
Daily Weekly Monthly Yearly Custom
  High: Low: Average:
Temperature: 59.8 °F 47.4 °F 53.5 °F
Dew Point: 48.2 °F 41.5 °F 44.1 °F
Humidity: 80% 60% 71%
Wind Speed: 17.0mph 0.0mph 5.4mph
Wind Gust: 22.0mph - -
Wind- - SW
Pressure: 30.04 in 29.75 in -
Precipitation: 0.00 in    
Historical Graphs
 
 
Tabular Data for April 28, 2017
Time Temperature Dew Point Pressure Wind Wind Speed Wind Gust Humidity Rainfall Rate (Hourly)
00:00 54.4 °F 46.6 °F 29.75 in WSW 8.0 mph 19.0 mph 75% 0.00 in
00:05 54.1 °F 46.3 °F 29.75 in SW 9.0 mph 17.0 mph 75% 0.00 in
00:10 53.8 °F 46.1 °F 29.75 in WSW 6.0 mph 13.0 mph 75% 0.00 in
00:15 53.6 °F 45.9 °F 29.76 in West 12.0 mph 18.0 mph 75% 0.00 in
00:20 53.5 °F 45.8 °F 29.76 in WSW 17.0 mph 17.0 mph 75% 0.00 in
00:25 53.4 °F 45.7 °F 29.77 in SW 8.0 mph 20.0 mph 75% 0.00 in
00:30 53.2 °F 45.5 °F 29.77 in SW 9.0 mph 20.0 mph 75% 0.00 in
00:35 53.0 °F 45.6 °F 29.78 in SW 10.0 mph 20.0 mph 76% 0.00 in
00:40 52.8 °F 45.4 °F 29.78 in SW 9.0 mph 19.0 mph 76% 0.00 in
00:45 52.6 °F 45.2 °F 29.79 in SW 8.0 mph 21.0 mph 76% 0.00 in
00:50 52.4 °F 45.4 °F 29.79 in South 6.0 mph 21.0 mph 77% 0.00 in
00:55 52.2 °F 45.2 °F 29.80 in SW 10.0 mph 18.0 mph 77% 0.00 in
01:00 52.0 °F 45.4 °F 29.80 in SSW 13.0 mph 15.0 mph 78% 0.00 in
01:05 51.9 °F 45.3 °F 29.80 in SW 7.0 mph 22.0 mph 78% 0.00 in
01:10 51.9 °F 45.3 °F 29.81 in WSW 9.0 mph 21.0 mph 78% 0.00 in
01:15 51.8 °F 45.2 °F 29.81 in West 4.0 mph 16.0 mph 78% 0.00 in
01:20 51.8 °F 45.2 °F 29.81 in SW 12.0 mph 17.0 mph 78% 0.00 in
01:25 51.8 °F 45.2 °F 29.82 in SW 10.0 mph 19.0 mph 78% 0.00 in
01:30 51.7 °F 45.1 °F 29.82 in SW 10.0 mph 20.0 mph 78% 0.00 in
01:35 51.5 °F 44.9 °F 29.82 in SW 9.0 mph 20.0 mph 78% 0.00 in
01:40 51.5 °F 44.9 °F 29.82 in SW 9.0 mph 20.0 mph 78% 0.00 in
01:45 51.3 °F 44.7 °F 29.82 in SW 8.0 mph 17.0 mph 78% 0.00 in
01:50 51.2 °F 44.6 °F 29.82 in SW 7.0 mph 16.0 mph 78% 0.00 in
01:55 51.0 °F 44.4 °F 29.82 in SSW 5.0 mph 17.0 mph 78% 0.00 in
02:00 50.9 °F 44.6 °F 29.83 in WSW 13.0 mph 18.0 mph 79% 0.00 in
02:05 50.8 °F 44.5 °F 29.83 in SW 5.0 mph 19.0 mph 79% 0.00 in
02:10 50.8 °F 44.5 °F 29.83 in WSW 5.0 mph 14.0 mph 79% 0.00 in
02:15 50.6 °F 44.3 °F 29.83 in SW 11.0 mph 20.0 mph 79% 0.00 in
02:20 50.4 °F 44.1 °F 29.83 in SW 8.0 mph 20.0 mph 79% 0.00 in
02:25 50.3 °F 44.0 °F 29.83 in SW 8.0 mph 19.0 mph 79% 0.00 in
02:30 50.2 °F 43.9 °F 29.83 in SW 8.0 mph 18.0 mph 79% 0.00 in
02:35 50.1 °F 44.2 °F 29.84 in SW 8.0 mph 18.0 mph 80% 0.00 in
02:40 50.0 °F 44.1 °F 29.84 in SW 8.0 mph 18.0 mph 80% 0.00 in
02:45 49.8 °F 43.5 °F 29.84 in SW 8.0 mph 18.0 mph 79% 0.00 in
02:50 49.6 °F 43.4 °F 29.85 in SW 7.0 mph 17.0 mph 79% 0.00 in
02:55 49.4 °F 43.2 °F 29.85 in West 6.0 mph 15.0 mph 79% 0.00 in
03:00 49.3 °F 43.1 °F 29.85 in SSW 7.0 mph 17.0 mph 79% 0.00 in
03:05 49.1 °F 42.9 °F 29.86 in SW 9.0 mph 17.0 mph 79% 0.00 in
03:10 49.0 °F 42.8 °F 29.86 in SW 5.0 mph 15.0 mph 79% 0.00 in
03:15 48.9 °F 42.7 °F 29.86 in WSW 8.0 mph 15.0 mph 79% 0.00 in
03:20 48.8 °F 42.6 °F 29.86 in WSW 6.0 mph 15.0 mph 79% 0.00 in
03:25 48.6 °F 42.4 °F 29.86 in SW 6.0 mph 14.0 mph 79% 0.00 in
03:30 48.5 °F 42.3 °F 29.87 in SW 6.0 mph 14.0 mph 79% 0.00 in
03:35 48.4 °F 42.2 °F 29.87 in SW 7.0 mph 14.0 mph 79% 0.00 in
03:40 48.3 °F 42.1 °F 29.87 in SW 7.0 mph 14.0 mph 79% 0.00 in
03:45 48.1 °F 41.9 °F 29.87 in West 6.0 mph 17.0 mph 79% 0.00 in
03:50 48.0 °F 41.8 °F 29.88 in SW 10.0 mph 14.0 mph 79% 0.00 in
03:55 48.0 °F 41.8 °F 29.88 in SW 7.0 mph 11.0 mph 79% 0.00 in
04:00 47.9 °F 41.7 °F 29.88 in WSW 8.0 mph 13.0 mph 79% 0.00 in
04:05 47.9 °F 41.7 °F 29.88 in SW 6.0 mph 13.0 mph 79% 0.00 in
04:10 47.8 °F 41.6 °F 29.88 in WSW 5.0 mph 13.0 mph 79% 0.00 in
04:15 47.7 °F 41.5 °F 29.88 in WSW 4.0 mph 11.0 mph 79% 0.00 in
04:20 47.6 °F 41.7 °F 29.88 in WSW 6.0 mph 12.0 mph 80% 0.00 in
04:25 47.7 °F 41.8 °F 29.89 in SW 6.0 mph 12.0 mph 80% 0.00 in
04:30 47.6 °F 41.7 °F 29.89 in SW 5.0 mph 12.0 mph 80% 0.00 in
04:35 47.5 °F 41.6 °F 29.89 in WSW 5.0 mph 11.0 mph 80% 0.00 in
04:40 47.6 °F 41.7 °F 29.90 in WSW 5.0 mph 12.0 mph 80% 0.00 in
04:45 47.5 °F 41.6 °F 29.90 in WSW 5.0 mph 8.0 mph 80% 0.00 in
04:50 47.4 °F 41.5 °F 29.90 in SW 5.0 mph 12.0 mph 80% 0.00 in
04:55 47.4 °F 41.5 °F 29.90 in SW 5.0 mph 12.0 mph 80% 0.00 in
05:00 47.5 °F 41.6 °F 29.90 in West 3.0 mph 10.0 mph 80% 0.00 in
05:05 47.6 °F 41.7 °F 29.90 in West 4.0 mph 15.0 mph 80% 0.00 in
05:10 47.6 °F 41.7 °F 29.91 in SSW 3.0 mph 10.0 mph 80% 0.00 in
05:15 47.7 °F 41.8 °F 29.91 in WSW 5.0 mph 9.0 mph 80% 0.00 in
05:20 47.7 °F 41.8 °F 29.91 in WSW 4.0 mph 10.0 mph 80% 0.00 in
05:25 47.8 °F 41.6 °F 29.91 in WSW 5.0 mph 10.0 mph 79% 0.00 in
05:30 47.9 °F 41.7 °F 29.91 in WSW 5.0 mph 10.0 mph 79% 0.00 in
05:35 48.1 °F 41.9 °F 29.92 in SW 4.0 mph 9.0 mph 79% 0.00 in
05:40 48.3 °F 42.1 °F 29.92 in SW 4.0 mph 9.0 mph 79% 0.00 in
05:45 48.3 °F 41.8 °F 29.92 in WSW 5.0 mph 10.0 mph 78% 0.00 in
05:50 48.5 °F 42.0 °F 29.92 in SW 3.0 mph 11.0 mph 78% 0.00 in
05:55 48.6 °F 42.0 °F 29.92 in WSW 5.0 mph 11.0 mph 78% 0.00 in
06:00 48.6 °F 42.0 °F 29.92 in SW 4.0 mph 8.0 mph 78% 0.00 in
06:05 48.5 °F 42.0 °F 29.92 in SW 4.0 mph 8.0 mph 78% 0.00 in
06:10 48.5 °F 42.0 °F 29.92 in SW 4.0 mph 8.0 mph 78% 0.00 in
06:15 48.4 °F 41.9 °F 29.93 in SW 5.0 mph 7.0 mph 78% 0.00 in
06:20 48.3 °F 42.1 °F 29.93 in SW 3.0 mph 6.0 mph 79% 0.00 in
06:25 48.2 °F 42.0 °F 29.93 in SW 4.0 mph 11.0 mph 79% 0.00 in
06:30 48.1 °F 41.9 °F 29.93 in SW 4.0 mph 9.0 mph 79% 0.00 in
06:35 47.9 °F 41.7 °F 29.93 in SW 5.0 mph 11.0 mph 79% 0.00 in
06:40 47.7 °F 41.8 °F 29.94 in SW 4.0 mph 11.0 mph 80% 0.00 in
06:45 47.6 °F 41.7 °F 29.94 in WSW 5.0 mph 7.0 mph 80% 0.00 in
06:50 47.7 °F 41.8 °F 29.95 in SW 5.0 mph 9.0 mph 80% 0.00 in
06:55 47.7 °F 41.8 °F 29.95 in SW 5.0 mph 9.0 mph 80% 0.00 in
07:00 47.8 °F 41.9 °F 29.96 in SW 5.0 mph 9.0 mph 80% 0.00 in
07:05 47.8 °F 41.9 °F 29.96 in WSW 5.0 mph 10.0 mph 80% 0.00 in
07:10 47.9 °F 42.0 °F 29.97 in SW 5.0 mph 10.0 mph 80% 0.00 in
07:15 47.9 °F 42.0 °F 29.97 in SW 6.0 mph 9.0 mph 80% 0.00 in
07:20 47.9 °F 42.0 °F 29.97 in WSW 4.0 mph 7.0 mph 80% 0.00 in
07:25 48.3 °F 42.1 °F 29.98 in WSW 7.0 mph 8.0 mph 79% 0.00 in
07:30 48.8 °F 42.6 °F 29.98 in SW 3.0 mph 8.0 mph 79% 0.00 in
07:35 49.3 °F 42.7 °F 29.98 in SSW 5.0 mph 8.0 mph 78% 0.00 in
07:40 49.8 °F 42.9 °F 29.98 in SW 6.0 mph 9.0 mph 77% 0.00 in
07:45 50.2 °F 42.6 °F 29.99 in WSW 6.0 mph 11.0 mph 75% 0.00 in
07:50 50.3 °F 42.7 °F 29.99 in WSW 6.0 mph 11.0 mph 75% 0.00 in
07:55 50.6 °F 43.0 °F 29.99 in WSW 5.0 mph 10.0 mph 75% 0.00 in
08:00 51.2 °F 43.5 °F 30.00 in WSW 4.0 mph 8.0 mph 75% 0.00 in
08:05 51.2 °F 43.2 °F 30.00 in WSW 4.0 mph 8.0 mph 74% 0.00 in
08:10 51.2 °F 43.2 °F 30.00 in SW 6.0 mph 10.0 mph 74% 0.00 in
08:15 51.4 °F 43.0 °F 30.00 in WSW 5.0 mph 12.0 mph 73% 0.00 in
08:20 52.0 °F 43.3 °F 30.00 in SW 6.0 mph 12.0 mph 72% 0.00 in
08:25 52.4 °F 43.3 °F 30.00 in SW 6.0 mph 11.0 mph 71% 0.00 in
08:30 52.5 °F 43.0 °F 30.01 in SW 6.0 mph 12.0 mph 70% 0.00 in
08:35 52.3 °F 43.5 °F 30.01 in SSW 6.0 mph 12.0 mph 72% 0.00 in
08:40 52.2 °F 43.4 °F 30.01 in SSW 3.0 mph 15.0 mph 72% 0.00 in
08:45 52.2 °F 43.4 °F 30.01 in SW 4.0 mph 13.0 mph 72% 0.00 in
08:50 52.2 °F 43.8 °F 30.01 in SW 5.0 mph 13.0 mph 73% 0.00 in
08:55 52.1 °F 43.3 °F 30.01 in SW 6.0 mph 14.0 mph 72% 0.00 in
09:00 52.4 °F 43.3 °F 30.01 in SW 7.0 mph 15.0 mph 71% 0.00 in
09:05 52.5 °F 43.0 °F 30.01 in West 7.0 mph 17.0 mph 70% 0.00 in
09:10 52.8 °F 42.9 °F 30.01 in WSW 8.0 mph 11.0 mph 69% 0.00 in
09:15 53.1 °F 42.8 °F 30.01 in WSW 5.0 mph 14.0 mph 68% 0.00 in
09:20 53.1 °F 42.8 °F 30.01 in SW 7.0 mph 15.0 mph 68% 0.00 in
09:25 53.3 °F 43.0 °F 30.00 in SW 7.0 mph 15.0 mph 68% 0.00 in
09:30 53.4 °F 42.7 °F 30.01 in SW 7.0 mph 16.0 mph 67% 0.00 in
09:35 54.0 °F 43.3 °F 30.01 in WSW 9.0 mph 14.0 mph 67% 0.00 in
09:40 54.4 °F 43.7 °F 30.01 in SSW 9.0 mph 16.0 mph 67% 0.00 in
09:45 54.1 °F 43.4 °F 30.00 in WSW 9.0 mph 15.0 mph 67% 0.00 in
09:50 54.7 °F 44.3 °F 30.01 in West 10.0 mph 12.0 mph 68% 0.00 in
09:55 54.8 °F 43.7 °F 30.01 in WSW 7.0 mph 18.0 mph 66% 0.00 in
10:00 54.8 °F 43.7 °F 30.01 in SW 8.0 mph 18.0 mph 66% 0.00 in
10:05 55.0 °F 44.6 °F 30.01 in WSW 8.0 mph 16.0 mph 68% 0.00 in
10:10 55.5 °F 44.7 °F 30.02 in WSW 7.0 mph 11.0 mph 67% 0.00 in
10:15 56.1 °F 44.9 °F 30.02 in WSW 13.0 mph 14.0 mph 66% 0.00 in
10:20 55.8 °F 44.2 °F 30.02 in WSW 7.0 mph 13.0 mph 65% 0.00 in
10:25 55.7 °F 43.3 °F 30.02 in WSW 8.0 mph 15.0 mph 63% 0.00 in
10:30 55.4 °F 43.4 °F 30.02 in WSW 8.0 mph 15.0 mph 64% 0.00 in
10:35 55.5 °F 43.9 °F 30.01 in WSW 8.0 mph 14.0 mph 65% 0.00 in
10:40 55.8 °F 44.2 °F 30.01 in WSW 7.0 mph 15.0 mph 65% 0.00 in
10:45 56.3 °F 43.9 °F 30.01 in West 7.0 mph 18.0 mph 63% 0.00 in
10:50 55.8 °F 43.4 °F 30.01 in WSW 8.0 mph 17.0 mph 63% 0.00 in
10:55 55.7 °F 43.3 °F 30.01 in WSW 8.0 mph 17.0 mph 63% 0.00 in
11:00 56.4 °F 44.0 °F 30.01 in WSW 4.0 mph 15.0 mph 63% 0.00 in
11:05 56.5 °F 45.3 °F 30.01 in West 6.0 mph 14.0 mph 66% 0.00 in
11:10 56.2 °F 44.2 °F 30.01 in WSW 5.0 mph 16.0 mph 64% 0.00 in
11:15 57.0 °F 44.9 °F 30.01 in WSW 5.0 mph 13.0 mph 64% 0.00 in
11:20 57.0 °F 44.5 °F 30.01 in SW 4.0 mph 19.0 mph 63% 0.00 in
11:25 57.1 °F 45.0 °F 30.01 in WSW 7.0 mph 19.0 mph 64% 0.00 in
11:30 56.9 °F 45.3 °F 30.01 in WSW 7.0 mph 13.0 mph 65% 0.00 in
11:35 56.9 °F 44.4 °F 30.01 in WSW 7.0 mph 13.0 mph 63% 0.00 in
11:40 56.4 °F 44.8 °F 30.00 in WSW 8.0 mph 13.0 mph 65% 0.00 in
11:45 55.7 °F 43.7 °F 30.00 in WSW 8.0 mph 14.0 mph 64% 0.00 in
11:50 54.9 °F 44.1 °F 30.01 in WSW 8.0 mph 16.0 mph 67% 0.00 in
11:55 55.3 °F 44.1 °F 30.00 in WSW 7.0 mph 16.0 mph 66% 0.00 in
12:00 55.7 °F 44.5 °F 30.00 in SW 5.0 mph 12.0 mph 66% 0.00 in
12:05 55.9 °F 44.3 °F 30.00 in WSW 5.0 mph 13.0 mph 65% 0.00 in
12:10 56.8 °F 45.2 °F 30.00 in WSW 9.0 mph 13.0 mph 65% 0.00 in
12:15 58.0 °F 46.7 °F 30.00 in West 3.0 mph 14.0 mph 66% 0.00 in
12:20 57.5 °F 45.0 °F 30.00 in WSW 7.0 mph 11.0 mph 63% 0.00 in
12:25 57.5 °F 45.0 °F 30.00 in WSW 6.0 mph 12.0 mph 63% 0.00 in
12:30 58.0 °F 45.9 °F 30.01 in WSW 7.0 mph 13.0 mph 64% 0.00 in
12:35 59.4 °F 47.6 °F 30.02 in WSW 7.0 mph 17.0 mph 65% 0.00 in
12:40 59.3 °F 46.3 °F 30.02 in SW 7.0 mph 17.0 mph 62% 0.00 in
12:45 58.3 °F 45.3 °F 30.02 in WSW 8.0 mph 16.0 mph 62% 0.00 in
12:50 58.5 °F 45.5 °F 30.01 in WSW 8.0 mph 16.0 mph 62% 0.00 in
12:55 58.4 °F 45.4 °F 30.00 in WSW 4.0 mph 16.0 mph 62% 0.00 in
13:00 58.0 °F 45.9 °F 30.00 in West 10.0 mph 12.0 mph 64% 0.00 in
13:05 59.2 °F 46.6 °F 30.01 in West 5.0 mph 10.0 mph 63% 0.00 in
13:10 57.9 °F 45.0 °F 30.01 in SW 6.0 mph 14.0 mph 62% 0.00 in
13:15 57.2 °F 45.1 °F 30.01 in WSW 5.0 mph 14.0 mph 64% 0.00 in
13:20 57.9 °F 45.4 °F 30.01 in SW 9.0 mph 12.0 mph 63% 0.00 in
13:25 57.9 °F 45.4 °F 30.01 in SW 4.0 mph 13.0 mph 63% 0.00 in
13:30 59.1 °F 46.5 °F 30.01 in SW 6.0 mph 14.0 mph 63% 0.00 in
13:35 59.6 °F 48.2 °F 30.01 in WSW 6.0 mph 14.0 mph 66% 0.00 in
13:40 59.8 °F 47.6 °F 30.01 in WSW 6.0 mph 11.0 mph 64% 0.00 in
13:45 59.2 °F 46.6 °F 30.01 in SW 6.0 mph 13.0 mph 63% 0.00 in
13:50 57.9 °F 45.4 °F 30.01 in WSW 7.0 mph 14.0 mph 63% 0.00 in
13:55 57.7 °F 45.2 °F 30.01 in WSW 8.0 mph 15.0 mph 63% 0.00 in
14:00 58.4 °F 47.5 °F 30.01 in WSW 7.0 mph 15.0 mph 67% 0.00 in
14:05 59.0 °F 47.2 °F 30.01 in WSW 4.0 mph 9.0 mph 65% 0.00 in
14:10 58.6 °F 46.0 °F 30.02 in WSW 12.0 mph 12.0 mph 63% 0.00 in
14:15 58.0 °F 46.3 °F 30.02 in West 8.0 mph 14.0 mph 65% 0.00 in
14:20 57.8 °F 45.7 °F 30.02 in SW 7.0 mph 13.0 mph 64% 0.00 in
14:25 57.6 °F 45.9 °F 30.02 in West 7.0 mph 14.0 mph 65% 0.00 in
14:30 58.6 °F 46.9 °F 30.02 in South 5.0 mph 15.0 mph 65% 0.00 in
14:35 57.6 °F 45.1 °F 30.02 in SW 6.0 mph 15.0 mph 63% 0.00 in
14:40 57.0 °F 45.3 °F 30.02 in WSW 7.0 mph 13.0 mph 65% 0.00 in
14:45 57.8 °F 46.1 °F 30.02 in SW 6.0 mph 13.0 mph 65% 0.00 in
14:50 58.1 °F 46.0 °F 30.01 in SW 6.0 mph 12.0 mph 64% 0.00 in
14:55 58.6 °F 46.9 °F 30.02 in SW 6.0 mph 12.0 mph 65% 0.00 in
15:00 58.3 °F 46.6 °F 30.02 in SW 7.0 mph 14.0 mph 65% 0.00 in
15:05 58.0 °F 45.5 °F 30.03 in WSW 7.0 mph 14.0 mph 63% 0.00 in
15:10 57.5 °F 45.4 °F 30.02 in WSW 9.0 mph 15.0 mph 64% 0.00 in
15:15 57.5 °F 45.8 °F 30.01 in SSW 6.0 mph 10.0 mph 65% 0.00 in
15:20 56.9 °F 44.8 °F 30.01 in SW 5.0 mph 12.0 mph 64% 0.00 in
15:25 56.8 °F 44.7 °F 30.01 in SW 6.0 mph 9.0 mph 64% 0.00 in
15:30 56.7 °F 45.1 °F 30.01 in SW 4.0 mph 9.0 mph 65% 0.00 in
15:35 56.5 °F 44.5 °F 30.01 in WSW 4.0 mph 9.0 mph 64% 0.00 in
15:40 56.7 °F 44.7 °F 30.01 in SW 5.0 mph 9.0 mph 64% 0.00 in
15:45 57.1 °F 45.0 °F 30.01 in SW 5.0 mph 10.0 mph 64% 0.00 in
15:50 57.6 °F 45.9 °F 30.01 in WSW 5.0 mph 10.0 mph 65% 0.00 in
15:55 57.5 °F 45.0 °F 30.01 in WSW 5.0 mph 9.0 mph 63% 0.00 in
16:00 57.3 °F 44.8 °F 30.00 in SSW 6.0 mph 8.0 mph 63% 0.00 in
16:05 57.1 °F 45.0 °F 30.00 in SW 5.0 mph 9.0 mph 64% 0.00 in
16:10 57.7 °F 45.6 °F 30.00 in SW 5.0 mph 11.0 mph 64% 0.00 in
16:15 57.8 °F 45.3 °F 30.00 in SW 5.0 mph 11.0 mph 63% 0.00 in
16:20 58.5 °F 45.9 °F 30.00 in WSW 4.0 mph 10.0 mph 63% 0.00 in
16:25 58.6 °F 45.2 °F 30.01 in West 4.0 mph 8.0 mph 61% 0.00 in
16:30 58.7 °F 45.7 °F 30.00 in SW 4.0 mph 10.0 mph 62% 0.00 in
16:35 59.4 °F 45.5 °F 30.01 in SW 5.0 mph 9.0 mph 60% 0.00 in
16:40 59.0 °F 45.6 °F 30.01 in SW 5.0 mph 9.0 mph 61% 0.00 in
16:45 58.2 °F 45.7 °F 30.01 in WSW 5.0 mph 9.0 mph 63% 0.00 in
16:50 58.4 °F 45.4 °F 30.01 in WSW 5.0 mph 9.0 mph 62% 0.00 in
16:55 57.6 °F 45.5 °F 30.01 in SSW 3.0 mph 10.0 mph 64% 0.00 in
17:00 58.3 °F 46.2 °F 30.01 in SSW 5.0 mph 6.0 mph 64% 0.00 in
17:05 58.4 °F 45.4 °F 30.02 in SW 8.0 mph 12.0 mph 62% 0.00 in
17:10 57.7 °F 45.2 °F 30.02 in WSW 5.0 mph 12.0 mph 63% 0.00 in
17:15 57.5 °F 45.0 °F 30.03 in WSW 6.0 mph 12.0 mph 63% 0.00 in
17:20 57.1 °F 44.6 °F 30.03 in WSW 5.0 mph 12.0 mph 63% 0.00 in
17:25 56.5 °F 44.0 °F 30.03 in WSW 5.0 mph 10.0 mph 63% 0.00 in
17:30 56.2 °F 44.2 °F 30.03 in West 6.0 mph 12.0 mph 64% 0.00 in
17:35 56.0 °F 44.0 °F 30.04 in WSW 5.0 mph 11.0 mph 64% 0.00 in
17:40 56.1 °F 44.1 °F 30.04 in SW 8.0 mph 9.0 mph 64% 0.00 in
17:45 55.7 °F 43.7 °F 30.04 in West 6.0 mph 11.0 mph 64% 0.00 in
17:50 55.5 °F 43.5 °F 30.04 in SW 5.0 mph 10.0 mph 64% 0.00 in
17:55 55.4 °F 43.8 °F 30.04 in WSW 5.0 mph 10.0 mph 65% 0.00 in
18:00 55.3 °F 43.7 °F 30.04 in SSW 4.0 mph 8.0 mph 65% 0.00 in
18:05 54.9 °F 43.7 °F 30.04 in WSW 5.0 mph 10.0 mph 66% 0.00 in
18:10 54.5 °F 43.4 °F 30.04 in SW 5.0 mph 10.0 mph 66% 0.00 in
18:15 54.4 °F 43.7 °F 30.04 in WSW 4.0 mph 8.0 mph 67% 0.00 in
18:20 54.1 °F 43.4 °F 30.03 in SW 4.0 mph 9.0 mph 67% 0.00 in
18:25 54.1 °F 43.4 °F 30.03 in SW 4.0 mph 9.0 mph 67% 0.00 in
18:30 54.1 °F 43.4 °F 30.03 in SW 4.0 mph 6.0 mph 67% 0.00 in
18:35 54.1 °F 43.8 °F 30.03 in Calm   6.0 mph 68% 0.00 in
18:40 54.1 °F 43.8 °F 30.03 in SW 3.0 mph 8.0 mph 68% 0.00 in
18:45 54.1 °F 43.8 °F 30.03 in WSW 1.0 mph 7.0 mph 68% 0.00 in
18:50 54.0 °F 43.7 °F 30.02 in SW 4.0 mph 9.0 mph 68% 0.00 in
18:55 53.9 °F 43.6 °F 30.02 in SSW 2.0 mph 6.0 mph 68% 0.00 in
19:00 53.9 °F 43.6 °F 30.02 in SW 5.0 mph 5.0 mph 68% 0.00 in
19:05 53.9 °F 43.6 °F 30.02 in SW 3.0 mph 8.0 mph 68% 0.00 in
19:10 53.8 °F 43.5 °F 30.03 in SW 3.0 mph 8.0 mph 68% 0.00 in
19:15 53.7 °F 43.4 °F 30.02 in SW 3.0 mph 8.0 mph 68% 0.00 in
19:20 53.7 °F 43.4 °F 30.02 in SW 4.0 mph 9.0 mph 68% 0.00 in
19:25 53.8 °F 43.5 °F 30.02 in WSW 7.0 mph 7.0 mph 68% 0.00 in
19:30 53.7 °F 43.4 °F 30.01 in SSW 4.0 mph 7.0 mph 68% 0.00 in
19:35 53.7 °F 43.4 °F 30.01 in SW 1.0 mph 6.0 mph 68% 0.00 in
19:40 53.6 °F 43.3 °F 30.01 in SW 3.0 mph 6.0 mph 68% 0.00 in
19:45 53.7 °F 43.8 °F 30.01 in SW 3.0 mph 6.0 mph 69% 0.00 in
19:50 53.6 °F 43.7 °F 30.01 in SW 3.0 mph 7.0 mph 69% 0.00 in
19:55 53.6 °F 43.7 °F 30.00 in SSW 3.0 mph 7.0 mph 69% 0.00 in
20:00 53.7 °F 43.8 °F 30.01 in SW 2.0 mph 5.0 mph 69% 0.00 in
20:05 53.6 °F 43.7 °F 30.01 in SW 3.0 mph 6.0 mph 69% 0.00 in
20:10 53.7 °F 43.8 °F 30.01 in SW 3.0 mph 6.0 mph 69% 0.00 in
20:15 53.7 °F 43.8 °F 30.01 in WSW 4.0 mph 8.0 mph 69% 0.00 in
20:20 53.6 °F 43.7 °F 30.02 in SW 4.0 mph 9.0 mph 69% 0.00 in
20:25 53.6 °F 43.7 °F 30.01 in SW 2.0 mph 6.0 mph 69% 0.00 in
20:30 53.6 °F 43.7 °F 30.02 in WSW 5.0 mph 6.0 mph 69% 0.00 in
20:35 53.5 °F 43.6 °F 30.02 in WSW 2.0 mph 7.0 mph 69% 0.00 in
20:40 53.5 °F 43.6 °F 30.02 in WSW 4.0 mph 7.0 mph 69% 0.00 in
20:45 53.3 °F 43.4 °F 30.02 in WSW 3.0 mph 6.0 mph 69% 0.00 in
20:50 53.2 °F 43.7 °F 30.02 in SW 3.0 mph 6.0 mph 70% 0.00 in
20:55 53.1 °F 43.6 °F 30.02 in SW 3.0 mph 7.0 mph 70% 0.00 in
21:00 53.0 °F 43.5 °F 30.02 in SW 3.0 mph 7.0 mph 70% 0.00 in
21:05 53.0 °F 43.5 °F 30.01 in WSW 2.0 mph 6.0 mph 70% 0.00 in
21:10 53.0 °F 43.5 °F 30.01 in SW 2.0 mph 4.0 mph 70% 0.00 in
21:15 53.0 °F 43.8 °F 30.01 in SW 3.0 mph 4.0 mph 71% 0.00 in
21:20 52.9 °F 43.7 °F 30.01 in SSW 2.0 mph 7.0 mph 71% 0.00 in
21:25 53.0 °F 43.8 °F 30.01 in SSW 2.0 mph 5.0 mph 71% 0.00 in
21:30 53.0 °F 43.8 °F 30.01 in SSW 3.0 mph 4.0 mph 71% 0.00 in
21:35 53.0 °F 43.8 °F 30.01 in Calm   5.0 mph 71% 0.00 in
21:40 52.9 °F 43.7 °F 30.01 in SW 2.0 mph 5.0 mph 71% 0.00 in
21:45 53.0 °F 43.8 °F 30.01 in SSW 2.0 mph 6.0 mph 71% 0.00 in
21:50 53.0 °F 44.2 °F 30.01 in SSW 2.0 mph 6.0 mph 72% 0.00 in
21:55 52.8 °F 44.0 °F 30.00 in South 2.0 mph 4.0 mph 72% 0.00 in
22:00 52.8 °F 44.0 °F 29.99 in South 1.0 mph 4.0 mph 72% 0.00 in
22:05 53.0 °F 44.2 °F 29.99 in Calm   3.0 mph 72% 0.00 in
22:10 53.3 °F 44.5 °F 29.98 in SSW 1.0 mph 3.0 mph 72% 0.00 in
22:15 53.5 °F 44.7 °F 29.99 in SSW 1.0 mph 3.0 mph 72% 0.00 in
22:20 53.5 °F 44.7 °F 29.99 in SSW 1.0 mph 3.0 mph 72% 0.00 in
22:25 53.6 °F 44.8 °F 29.99 in Calm   3.0 mph 72% 0.00 in
22:30 53.7 °F 44.9 °F 29.98 in SSW 1.0 mph 3.0 mph 72% 0.00 in
22:35 53.9 °F 45.4 °F 29.98 in Calm   3.0 mph 73% 0.00 in
22:40 54.2 °F 45.7 °F 29.99 in SSW 1.0 mph 3.0 mph 73% 0.00 in
22:45 54.4 °F 45.9 °F 29.98 in SSW 1.0 mph 3.0 mph 73% 0.00 in
22:50 54.5 °F 46.0 °F 29.98 in Calm   4.0 mph 73% 0.00 in
22:55 54.6 °F 46.1 °F 29.99 in South 2.0 mph 5.0 mph 73% 0.00 in
23:00 54.5 °F 46.0 °F 29.99 in SSW 1.0 mph 4.0 mph 73% 0.00 in
23:05 54.3 °F 45.8 °F 29.98 in SSW 2.0 mph 4.0 mph 73% 0.00 in
23:10 54.4 °F 46.3 °F 29.98 in SSW 2.0 mph 4.0 mph 74% 0.00 in
23:15 54.6 °F 46.5 °F 29.98 in South 1.0 mph 4.0 mph 74% 0.00 in
23:25 55.0 °F 46.5 °F 29.98 in SSW 1.0 mph 4.0 mph 73% 0.00 in
23:30 55.2 °F 46.7 °F 29.98 in Calm   2.0 mph 73% 0.00 in
23:35 55.3 °F 46.4 °F 29.98 in Calm   2.0 mph 72% 0.00 in
23:40 55.5 °F 46.6 °F 29.98 in Calm     72% 0.00 in
23:45 55.7 °F 46.8 °F 29.98 in Calm   1.0 mph 72% 0.00 in
23:50 56.0 °F 47.1 °F 29.98 in Calm     72% 0.00 in
23:55 56.2 °F 46.9 °F 29.98 in Calm     71% 0.00 in
Buffalo, New York, USA
Compliments of Weather Underground - 2.5 mb